createdAt,value
2019-03-26T00:00:53.252Z,8.78
2019-03-26T00:03:20.671Z,8.81
2019-03-26T00:05:48.070Z,8.82
2019-03-26T00:08:15.634Z,8.76
2019-03-26T00:10:43.027Z,8.78
2019-03-26T00:13:10.468Z,8.80
2019-03-26T00:15:37.841Z,8.75
2019-03-26T00:18:05.224Z,8.78
2019-03-26T00:20:33.481Z,8.78
2019-03-26T00:23:00.929Z,8.73
2019-03-26T00:25:28.322Z,8.72
2019-03-26T00:27:55.727Z,8.73
2019-03-26T00:30:23.132Z,8.73
2019-03-26T00:32:50.532Z,8.80
2019-03-26T00:35:17.952Z,8.86
2019-03-26T00:37:45.341Z,8.87
2019-03-26T00:40:12.757Z,8.84
2019-03-26T00:42:40.207Z,8.89
2019-03-26T00:45:07.609Z,8.89
2019-03-26T00:47:35.021Z,8.95
2019-03-26T00:50:02.420Z,8.94
2019-03-26T00:52:29.906Z,8.99
2019-03-26T00:54:57.308Z,8.96
2019-03-26T00:57:24.705Z,8.93
2019-03-26T00:59:52.111Z,8.95
2019-03-26T01:02:19.627Z,8.99
2019-03-26T01:04:47.011Z,9.04
2019-03-26T01:07:14.450Z,9.02
2019-03-26T01:09:41.848Z,8.99
2019-03-26T01:14:43.292Z,8.74
2019-03-26T01:17:10.693Z,8.66
2019-03-26T01:19:38.092Z,8.61
2019-03-26T01:22:05.496Z,8.59
2019-03-26T01:24:33.102Z,8.57
2019-03-26T01:27:00.496Z,8.58
2019-03-26T01:29:27.909Z,8.61
2019-03-26T01:31:55.353Z,8.65
2019-03-26T01:34:22.755Z,8.66
2019-03-26T01:36:50.230Z,8.66
2019-03-26T01:39:17.624Z,8.65
2019-03-26T01:41:45.079Z,8.69
2019-03-26T01:44:12.538Z,8.68
2019-03-26T01:46:39.945Z,8.61
2019-03-26T01:49:07.360Z,8.62
2019-03-26T01:51:34.763Z,8.69
2019-03-26T01:54:02.192Z,8.71
2019-03-26T01:56:29.609Z,8.71
2019-03-26T01:58:57.094Z,8.73
2019-03-26T02:01:24.964Z,8.71
2019-03-26T02:03:52.358Z,8.66
2019-03-26T02:06:19.742Z,8.60
2019-03-26T02:08:47.159Z,8.58
2019-03-26T02:11:14.562Z,8.58
2019-03-26T02:13:42.043Z,8.53
2019-03-26T02:16:09.487Z,8.44
2019-03-26T02:18:36.872Z,8.36
2019-03-26T02:21:04.285Z,8.34
2019-03-26T02:23:31.680Z,8.33
2019-03-26T02:25:59.213Z,8.36
2019-03-26T02:28:26.639Z,8.29
2019-03-26T02:30:54.057Z,8.29
2019-03-26T02:33:21.472Z,8.28
2019-03-26T02:35:48.880Z,8.29
2019-03-26T02:38:16.294Z,8.26
2019-03-26T02:40:43.693Z,8.22
2019-03-26T02:43:11.118Z,8.23
2019-03-26T02:45:38.513Z,8.24
2019-03-26T02:48:05.919Z,8.26
2019-03-26T02:50:33.328Z,8.27
2019-03-26T02:53:00.743Z,8.22
2019-03-26T02:55:28.139Z,8.07
2019-03-26T02:57:55.576Z,7.90
2019-03-26T03:00:23.106Z,7.82
2019-03-26T03:02:50.441Z,7.81
2019-03-26T03:05:33.824Z,7.65
2019-03-26T03:07:45.240Z,7.49
2019-03-26T03:10:12.638Z,7.43
2019-03-26T03:12:40.040Z,7.42
2019-03-26T03:15:07.433Z,7.40
2019-03-26T03:17:34.831Z,7.38
2019-03-26T03:20:02.268Z,7.44
2019-03-26T03:22:29.672Z,7.45
2019-03-26T03:24:57.085Z,7.47
2019-03-26T03:27:24.484Z,7.46
2019-03-26T03:29:51.893Z,7.46
2019-03-26T03:32:19.518Z,7.46
2019-03-26T03:34:46.894Z,7.53
2019-03-26T03:37:14.326Z,7.53
2019-03-26T03:39:41.719Z,7.41
2019-03-26T03:42:09.125Z,7.32
2019-03-26T03:44:36.554Z,7.27
2019-03-26T03:47:04.036Z,7.27
2019-03-26T03:49:31.436Z,7.30
2019-03-26T03:51:58.828Z,7.31
2019-03-26T03:54:26.731Z,7.29
2019-03-26T03:56:54.190Z,7.31
2019-03-26T03:59:21.598Z,7.42
2019-03-26T04:01:49.073Z,7.62
2019-03-26T04:04:16.484Z,7.54
2019-03-26T04:06:43.888Z,7.41
2019-03-26T04:09:11.325Z,7.30
2019-03-26T04:11:38.734Z,7.27
2019-03-26T04:14:06.135Z,7.23
2019-03-26T04:16:33.553Z,6.97
2019-03-26T04:19:00.954Z,6.93
2019-03-26T04:21:28.339Z,6.93
2019-03-26T04:23:55.754Z,6.87
2019-03-26T04:26:23.224Z,6.78
2019-03-26T04:28:50.616Z,6.75
2019-03-26T04:31:18.072Z,6.70
2019-03-26T04:33:45.485Z,6.68
2019-03-26T04:36:24.762Z,6.63
2019-03-26T04:38:40.301Z,6.69
2019-03-26T04:41:07.697Z,6.74
2019-03-26T04:43:35.101Z,6.75
2019-03-26T04:46:02.488Z,6.80
2019-03-26T04:48:29.883Z,6.78
2019-03-26T04:50:57.300Z,6.76
2019-03-26T04:53:25.255Z,6.73
2019-03-26T04:55:52.677Z,6.80
2019-03-26T04:58:20.068Z,6.81
2019-03-26T05:00:47.462Z,6.84
2019-03-26T05:03:14.869Z,6.87
2019-03-26T05:05:42.263Z,6.90
2019-03-26T05:08:09.656Z,6.90
2019-03-26T05:10:37.060Z,6.95
2019-03-26T05:13:04.492Z,6.96
2019-03-26T05:15:32.051Z,6.94
2019-03-26T05:17:59.447Z,6.93
2019-03-26T05:20:26.939Z,6.97
2019-03-26T05:22:54.354Z,6.94
2019-03-26T05:25:21.784Z,6.90
2019-03-26T05:27:49.309Z,6.87
2019-03-26T05:30:16.777Z,6.82
2019-03-26T05:32:44.207Z,6.85
2019-03-26T05:35:11.598Z,6.95
2019-03-26T05:37:38.987Z,7.02
2019-03-26T05:40:06.400Z,7.05
2019-03-26T05:42:34.154Z,7.14
2019-03-26T05:45:01.586Z,7.12
2019-03-26T05:47:29.061Z,7.18
2019-03-26T05:49:56.878Z,7.28
2019-03-26T05:52:24.293Z,7.15
2019-03-26T05:54:51.698Z,7.07
2019-03-26T05:57:19.262Z,7.16
2019-03-26T05:59:46.712Z,7.20
2019-03-26T06:02:17.862Z,7.16
2019-03-26T06:04:41.603Z,7.29
2019-03-26T06:07:09.590Z,7.49
2019-03-26T06:09:37.003Z,7.60
2019-03-26T06:12:04.416Z,7.69
2019-03-26T06:14:31.900Z,7.82
2019-03-26T06:16:59.298Z,7.91
2019-03-26T06:19:26.700Z,7.88
2019-03-26T06:21:54.123Z,7.89
2019-03-26T06:24:22.276Z,7.96
2019-03-26T06:26:49.764Z,8.09
2019-03-26T06:29:17.227Z,7.96
2019-03-26T06:31:44.670Z,8.09
2019-03-26T06:34:12.144Z,8.09
2019-03-26T06:36:39.584Z,8.11
2019-03-26T06:39:07.009Z,8.17
2019-03-26T06:41:34.411Z,8.22
2019-03-26T06:44:01.823Z,8.49
2019-03-26T06:46:29.247Z,8.64
2019-03-26T06:48:58.023Z,8.72
2019-03-26T06:51:25.444Z,8.60
2019-03-26T06:53:52.862Z,8.56
2019-03-26T06:56:20.264Z,8.43
2019-03-26T06:58:48.705Z,8.34
2019-03-26T07:01:16.100Z,8.19
2019-03-26T07:03:43.601Z,8.18
2019-03-26T07:06:11.020Z,8.11
2019-03-26T07:08:38.418Z,8.09
2019-03-26T07:11:05.823Z,8.10
2019-03-26T07:13:33.219Z,8.16
2019-03-26T07:16:00.701Z,8.22
2019-03-26T07:18:28.128Z,8.33
2019-03-26T07:20:55.576Z,8.48
2019-03-26T07:23:22.972Z,8.55
2019-03-26T07:25:50.383Z,8.61
2019-03-26T07:28:17.833Z,8.44
2019-03-26T07:30:45.254Z,8.43
2019-03-26T07:33:12.653Z,8.44
2019-03-26T07:35:40.064Z,8.55
2019-03-26T07:38:07.466Z,8.65
2019-03-26T07:40:34.883Z,8.60
2019-03-26T07:43:02.378Z,8.51
2019-03-26T07:45:30.041Z,8.54
2019-03-26T07:47:58.018Z,8.71
2019-03-26T07:50:25.423Z,8.91
2019-03-26T07:52:52.817Z,9.02
2019-03-26T07:55:20.983Z,9.01
2019-03-26T07:57:48.383Z,8.94
2019-03-26T08:00:15.821Z,8.99
2019-03-26T08:02:43.277Z,9.07
2019-03-26T08:05:10.805Z,9.03
2019-03-26T08:07:38.218Z,9.17
2019-03-26T08:10:06.439Z,9.25
2019-03-26T08:12:33.853Z,9.12
2019-03-26T08:15:01.255Z,9.20
2019-03-26T08:17:28.675Z,9.47
2019-03-26T08:19:56.122Z,9.66
2019-03-26T08:22:23.654Z,9.53
2019-03-26T08:24:51.164Z,9.69
2019-03-26T08:27:18.606Z,9.74
2019-03-26T08:29:45.990Z,9.72
2019-03-26T08:32:13.387Z,9.76
2019-03-26T08:34:40.832Z,10.00
2019-03-26T08:37:07.960Z,10.01
2019-03-26T08:39:35.358Z,10.09
2019-03-26T08:42:02.759Z,10.16
2019-03-26T08:44:30.251Z,10.23
2019-03-26T08:46:57.831Z,10.25
2019-03-26T08:49:30.649Z,10.43
2019-03-26T08:51:52.718Z,10.33
2019-03-26T08:54:20.122Z,10.05
2019-03-26T08:56:47.530Z,9.91
2019-03-26T08:59:14.920Z,9.88
2019-03-26T09:01:42.377Z,10.05
2019-03-26T09:04:09.799Z,10.16
2019-03-26T09:06:37.243Z,10.00
2019-03-26T09:09:04.652Z,10.00
2019-03-26T09:11:32.162Z,10.05
2019-03-26T09:13:59.718Z,10.05
2019-03-26T09:16:27.122Z,10.24
2019-03-26T09:18:54.535Z,10.19
2019-03-26T09:21:21.972Z,10.12
2019-03-26T09:23:49.419Z,10.13
2019-03-26T09:26:16.883Z,10.30
2019-03-26T09:28:44.304Z,10.40
2019-03-26T09:31:11.826Z,10.48
2019-03-26T09:33:39.251Z,10.40
2019-03-26T09:36:06.704Z,10.51
2019-03-26T09:38:39.050Z,10.86
2019-03-26T09:41:02.431Z,11.04
2019-03-26T09:43:30.372Z,11.12
2019-03-26T09:45:58.303Z,11.04
2019-03-26T09:48:25.709Z,11.20
2019-03-26T09:50:53.138Z,11.41
2019-03-26T09:53:20.555Z,11.52
2019-03-26T09:55:48.004Z,11.39
2019-03-26T09:58:15.481Z,11.20
2019-03-26T10:00:43.024Z,11.32
2019-03-26T10:03:10.506Z,11.12
2019-03-26T10:05:38.355Z,11.17
2019-03-26T10:08:05.764Z,11.24
2019-03-26T10:10:33.263Z,11.27
2019-03-26T10:13:00.654Z,11.38
2019-03-26T10:15:28.056Z,11.54
2019-03-26T10:17:55.066Z,11.48
2019-03-26T10:20:22.135Z,11.60
2019-03-26T10:22:49.275Z,11.75
2019-03-26T10:25:16.319Z,11.64
2019-03-26T10:27:43.353Z,11.75
2019-03-26T10:30:10.850Z,11.83
2019-03-26T10:32:37.856Z,11.87
2019-03-26T10:35:04.847Z,11.79
2019-03-26T10:37:32.929Z,11.78
2019-03-26T10:39:59.916Z,12.19
2019-03-26T10:42:26.884Z,12.71
2019-03-26T10:44:54.291Z,12.77
2019-03-26T10:47:21.714Z,12.55
2019-03-26T10:49:48.728Z,12.34
2019-03-26T10:52:15.725Z,12.46
2019-03-26T10:54:43.258Z,12.54
2019-03-26T10:57:10.230Z,12.57
2019-03-26T10:59:37.217Z,12.88
2019-03-26T11:02:04.632Z,13.08
2019-03-26T11:04:32.035Z,13.35
2019-03-26T11:06:59.481Z,13.38
2019-03-26T11:09:27.379Z,13.83
2019-03-26T11:11:54.318Z,14.35
2019-03-26T11:14:22.102Z,14.45
2019-03-26T11:16:49.824Z,14.62
2019-03-26T11:19:17.401Z,14.66
2019-03-26T11:21:44.822Z,14.42
2019-03-26T11:24:12.229Z,14.52
2019-03-26T11:26:40.135Z,14.65
2019-03-26T11:29:08.470Z,14.63
2019-03-26T11:31:35.910Z,14.86
2019-03-26T11:34:03.364Z,14.99
2019-03-26T11:36:30.790Z,14.93
2019-03-26T11:38:58.197Z,14.86
2019-03-26T11:41:25.649Z,14.85
2019-03-26T11:43:53.081Z,14.96
2019-03-26T11:46:20.610Z,15.50
2019-03-26T11:48:47.977Z,15.85
2019-03-26T11:51:15.565Z,15.90
2019-03-26T11:53:43.003Z,16.09
2019-03-26T11:56:10.747Z,16.45
2019-03-26T11:58:38.187Z,16.75
2019-03-26T12:01:05.575Z,16.88
2019-03-26T12:03:32.974Z,17.18
2019-03-26T12:06:00.584Z,17.03
2019-03-26T12:08:28.048Z,17.16
2019-03-26T12:10:55.451Z,16.96
2019-03-26T12:13:22.885Z,17.05
2019-03-26T12:15:50.345Z,17.03
2019-03-26T12:18:18.321Z,16.96
2019-03-26T12:20:45.820Z,17.26
2019-03-26T12:23:13.334Z,17.32
2019-03-26T12:25:40.283Z,17.25
2019-03-26T12:28:07.739Z,17.15
2019-03-26T12:30:35.176Z,16.42
2019-03-26T12:33:02.582Z,16.85
2019-03-26T12:35:29.988Z,17.17
2019-03-26T12:37:57.965Z,17.18
2019-03-26T12:40:25.421Z,17.49
2019-03-26T12:42:52.831Z,17.57
2019-03-26T12:45:20.273Z,17.84
2019-03-26T12:47:47.697Z,17.82
2019-03-26T12:50:15.256Z,17.66
2019-03-26T12:52:42.952Z,18.04
2019-03-26T12:55:10.346Z,18.28
2019-03-26T12:57:37.766Z,18.22
2019-03-26T13:00:06.238Z,18.06
2019-03-26T13:02:35.799Z,18.21
2019-03-26T13:05:01.760Z,18.06
2019-03-26T13:07:29.297Z,17.86
2019-03-26T13:09:56.685Z,17.80
2019-03-26T13:12:24.097Z,17.86
2019-03-26T13:14:51.613Z,17.50
2019-03-26T13:17:18.926Z,17.93
2019-03-26T13:19:46.379Z,18.36
2019-03-26T13:22:13.769Z,18.35
2019-03-26T13:24:41.175Z,18.52
2019-03-26T13:27:08.585Z,18.52
2019-03-26T13:29:36.001Z,18.66
2019-03-26T13:32:03.431Z,18.71
2019-03-26T13:34:30.849Z,18.23
2019-03-26T13:36:58.268Z,18.06
2019-03-26T13:39:25.816Z,18.30
2019-03-26T13:41:53.155Z,18.31
2019-03-26T13:44:20.607Z,17.91
2019-03-26T13:46:48.007Z,17.87
2019-03-26T13:49:15.418Z,17.87
2019-03-26T13:51:43.010Z,17.75
2019-03-26T13:54:10.404Z,17.74
2019-03-26T13:56:37.817Z,17.64
2019-03-26T13:59:05.753Z,17.64
2019-03-26T14:01:33.159Z,17.75
2019-03-26T14:04:00.695Z,17.81
2019-03-26T14:06:28.115Z,17.84
2019-03-26T14:08:55.506Z,17.67
2019-03-26T14:11:22.919Z,17.64
2019-03-26T14:13:50.305Z,17.92
2019-03-26T14:16:17.739Z,18.00
2019-03-26T14:18:45.141Z,18.09
2019-03-26T14:21:12.537Z,18.05
2019-03-26T14:23:39.947Z,18.11
2019-03-26T14:26:07.368Z,18.01
2019-03-26T14:28:34.799Z,17.94
2019-03-26T14:31:02.208Z,17.88
2019-03-26T14:33:29.742Z,17.80
2019-03-26T14:35:57.169Z,17.87
2019-03-26T14:38:24.564Z,18.40
2019-03-26T14:40:55.037Z,18.22
2019-03-26T14:43:19.386Z,17.76
2019-03-26T14:45:46.815Z,17.66
2019-03-26T14:48:14.232Z,17.60
2019-03-26T14:50:41.674Z,17.43
2019-03-26T14:53:09.103Z,17.47
2019-03-26T14:55:36.640Z,17.40
2019-03-26T14:58:04.027Z,17.95
2019-03-26T15:00:31.450Z,18.27
2019-03-26T15:02:58.859Z,18.06
2019-03-26T15:05:26.259Z,18.34
2019-03-26T15:07:53.667Z,18.27
2019-03-26T15:10:23.465Z,18.07
2019-03-26T15:12:48.521Z,18.23
2019-03-26T15:15:15.984Z,18.02
2019-03-26T15:17:44.838Z,18.00
2019-03-26T15:20:13.121Z,18.01
2019-03-26T15:22:40.502Z,17.63
2019-03-26T15:25:07.939Z,17.75
2019-03-26T15:27:35.379Z,17.70
2019-03-26T15:30:02.791Z,17.57
2019-03-26T15:32:30.207Z,17.41
2019-03-26T15:34:57.607Z,17.12
2019-03-26T15:37:25.003Z,16.95
2019-03-26T15:39:52.401Z,17.10
2019-03-26T15:42:19.841Z,17.32
2019-03-26T15:44:47.223Z,17.28
2019-03-26T15:47:14.643Z,17.00
2019-03-26T15:49:42.047Z,16.75
2019-03-26T15:52:09.468Z,16.34
2019-03-26T15:54:36.982Z,16.51
2019-03-26T15:57:04.398Z,16.78
2019-03-26T15:59:31.936Z,16.99
2019-03-26T16:01:59.333Z,16.75
2019-03-26T16:04:26.755Z,16.71
2019-03-26T16:06:54.236Z,16.90
2019-03-26T16:09:21.696Z,17.02
2019-03-26T16:11:49.350Z,16.78
2019-03-26T16:14:16.743Z,16.56
2019-03-26T16:16:44.215Z,16.58
2019-03-26T16:19:11.663Z,16.30
2019-03-26T16:21:39.112Z,16.32
2019-03-26T16:24:06.659Z,16.08
2019-03-26T16:26:34.100Z,15.88
2019-03-26T16:29:01.509Z,15.66
2019-03-26T16:31:28.979Z,15.62
2019-03-26T16:33:56.413Z,15.59
2019-03-26T16:36:23.939Z,15.78
2019-03-26T16:38:51.550Z,15.59
2019-03-26T16:41:18.939Z,15.37
2019-03-26T16:43:47.972Z,15.20
2019-03-26T16:46:15.380Z,15.02
2019-03-26T16:48:42.826Z,14.81
2019-03-26T16:51:10.348Z,14.63
2019-03-26T16:53:37.762Z,14.53
2019-03-26T16:56:05.195Z,14.45
2019-03-26T16:58:32.664Z,14.52
2019-03-26T17:01:00.102Z,14.41
2019-03-26T17:03:31.597Z,14.20
2019-03-26T17:05:55.382Z,14.17
2019-03-26T17:08:23.308Z,14.00
2019-03-26T17:10:51.929Z,13.88
2019-03-26T17:13:19.347Z,13.66
2019-03-26T17:15:46.943Z,13.59
2019-03-26T17:18:14.570Z,13.38
2019-03-26T17:20:42.071Z,13.04
2019-03-26T17:23:09.574Z,12.99
2019-03-26T17:25:37.017Z,12.84
2019-03-26T17:28:04.462Z,12.66
2019-03-26T17:30:31.894Z,12.50
2019-03-26T17:32:59.351Z,12.35
2019-03-26T17:35:26.935Z,12.17
2019-03-26T17:37:59.889Z,12.07
2019-03-26T17:40:21.864Z,11.95
2019-03-26T17:42:49.313Z,11.88
2019-03-26T17:45:16.880Z,11.68
2019-03-26T17:47:44.296Z,11.58
2019-03-26T17:50:11.721Z,11.45
2019-03-26T17:52:39.186Z,11.41
2019-03-26T17:55:06.575Z,11.40
2019-03-26T17:57:33.992Z,11.29
2019-03-26T18:00:01.445Z,11.11
2019-03-26T18:02:29.003Z,11.12
2019-03-26T18:04:56.461Z,11.04
2019-03-26T18:07:23.892Z,10.98
2019-03-26T18:09:51.950Z,10.98
2019-03-26T18:12:30.109Z,10.92
2019-03-26T18:14:46.917Z,10.84
2019-03-26T18:17:14.350Z,10.74
2019-03-26T18:19:41.914Z,10.67
2019-03-26T18:22:09.375Z,10.65
2019-03-26T18:24:37.866Z,10.62
2019-03-26T18:27:05.405Z,10.61
2019-03-26T18:29:32.743Z,10.51
2019-03-26T18:32:00.171Z,10.46
2019-03-26T18:34:27.575Z,10.40
2019-03-26T18:36:55.566Z,10.36
2019-03-26T18:39:23.943Z,10.36
2019-03-26T18:41:51.388Z,10.30
2019-03-26T18:44:18.857Z,10.28
2019-03-26T18:46:46.317Z,10.25
2019-03-26T18:49:14.106Z,10.20
2019-03-26T18:51:41.580Z,10.16
2019-03-26T18:54:08.996Z,10.12
2019-03-26T18:56:36.399Z,10.11
2019-03-26T18:59:04.025Z,10.10
2019-03-26T19:01:31.476Z,10.08
2019-03-26T19:03:58.886Z,10.15
2019-03-26T19:06:26.299Z,10.12
2019-03-26T19:08:53.745Z,10.01
2019-03-26T19:11:21.143Z,9.91
2019-03-26T19:13:48.562Z,9.84
2019-03-26T19:16:16.063Z,9.82
2019-03-26T19:18:43.476Z,9.79
2019-03-26T19:21:10.919Z,9.77
2019-03-26T19:23:38.327Z,9.77
2019-03-26T19:26:05.742Z,9.76
2019-03-26T19:28:33.138Z,9.78
2019-03-26T19:31:01.351Z,9.67
2019-03-26T19:33:28.734Z,9.60
2019-03-26T19:35:56.252Z,9.59
2019-03-26T19:38:24.086Z,9.63
2019-03-26T19:40:51.479Z,9.66
2019-03-26T19:43:19.698Z,9.59
2019-03-26T19:45:47.183Z,9.61
2019-03-26T19:48:14.590Z,9.58
2019-03-26T19:50:41.989Z,9.52
2019-03-26T19:53:09.396Z,9.53
2019-03-26T19:55:36.816Z,9.54
2019-03-26T19:58:04.220Z,9.51
2019-03-26T20:00:31.678Z,9.46
2019-03-26T20:02:59.087Z,9.43
2019-03-26T20:05:26.496Z,9.38
2019-03-26T20:07:54.807Z,9.37
2019-03-26T20:10:22.295Z,9.42
2019-03-26T20:12:49.595Z,9.42
2019-03-26T20:15:16.998Z,9.34
2019-03-26T20:17:44.387Z,9.31
2019-03-26T20:20:11.816Z,9.30
2019-03-26T20:22:39.214Z,9.27
2019-03-26T20:25:06.627Z,9.26
2019-03-26T20:27:34.047Z,9.22
2019-03-26T20:30:01.519Z,9.17
2019-03-26T20:32:28.899Z,9.15
2019-03-26T20:34:56.329Z,9.15
2019-03-26T20:37:23.743Z,9.19
2019-03-26T20:39:52.119Z,9.13
2019-03-26T20:42:19.560Z,9.11
2019-03-26T20:44:46.954Z,9.07
2019-03-26T20:47:14.548Z,9.05
2019-03-26T20:49:41.951Z,9.01
2019-03-26T20:52:09.359Z,8.99
2019-03-26T20:54:36.850Z,8.96
2019-03-26T20:57:04.398Z,8.96
2019-03-26T20:59:31.903Z,8.95
2019-03-26T21:01:59.705Z,8.91
2019-03-26T21:04:27.103Z,8.90
2019-03-26T21:06:54.512Z,8.93
2019-03-26T21:09:21.920Z,8.93
2019-03-26T21:11:49.342Z,8.95
2019-03-26T21:14:16.753Z,8.93
2019-03-26T21:16:44.264Z,8.85
2019-03-26T21:19:11.643Z,8.84
2019-03-26T21:21:39.087Z,8.84
2019-03-26T21:24:06.508Z,8.82
2019-03-26T21:26:33.918Z,8.81
2019-03-26T21:29:01.373Z,8.81
2019-03-26T21:31:28.780Z,8.81
2019-03-26T21:33:56.240Z,8.79
2019-03-26T21:36:23.642Z,8.77
2019-03-26T21:38:51.034Z,8.77
2019-03-26T21:41:18.428Z,8.79
2019-03-26T21:43:45.817Z,8.81
2019-03-26T21:46:13.312Z,8.82
2019-03-26T21:48:40.788Z,8.78
2019-03-26T21:51:09.062Z,8.72
2019-03-26T21:53:36.486Z,8.78
2019-03-26T21:56:06.701Z,8.84
2019-03-26T21:58:31.399Z,8.88
2019-03-26T22:00:58.824Z,8.85
2019-03-26T22:03:26.307Z,8.81
2019-03-26T22:05:53.728Z,8.76
2019-03-26T22:08:21.119Z,8.71
2019-03-26T22:10:48.609Z,8.66
2019-03-26T22:13:16.033Z,8.63
2019-03-26T22:15:43.429Z,8.64
2019-03-26T22:18:10.878Z,8.64
2019-03-26T22:20:38.370Z,8.62
2019-03-26T22:23:05.974Z,8.60
2019-03-26T22:25:33.419Z,8.62
2019-03-26T22:28:00.853Z,8.65
2019-03-26T22:30:28.272Z,8.65
2019-03-26T22:32:55.675Z,8.59
2019-03-26T22:35:23.096Z,8.46
2019-03-26T22:37:50.532Z,8.43
2019-03-26T22:40:17.980Z,8.41
2019-03-26T22:42:45.386Z,8.33
2019-03-26T22:45:12.776Z,8.36
2019-03-26T22:47:40.505Z,8.33
2019-03-26T22:50:07.987Z,8.24
2019-03-26T22:52:35.380Z,8.18
2019-03-26T22:55:02.873Z,8.13
2019-03-26T22:57:30.279Z,8.13
2019-03-26T22:59:57.698Z,8.22
2019-03-26T23:02:25.115Z,8.25
2019-03-26T23:04:52.535Z,8.29
2019-03-26T23:07:19.945Z,8.33
2019-03-26T23:09:47.335Z,8.38
2019-03-26T23:12:14.754Z,8.45
2019-03-26T23:14:45.403Z,8.47
2019-03-26T23:17:09.567Z,8.49
2019-03-26T23:19:36.967Z,8.52
2019-03-26T23:22:04.458Z,8.50
2019-03-26T23:24:31.875Z,8.50
2019-03-26T23:26:59.426Z,8.51
2019-03-26T23:29:26.960Z,8.50
2019-03-26T23:31:54.349Z,8.47
2019-03-26T23:34:21.748Z,8.49
2019-03-26T23:36:49.155Z,8.45
2019-03-26T23:39:17.018Z,8.43
2019-03-26T23:41:44.424Z,8.44
2019-03-26T23:44:24.969Z,8.46
2019-03-26T23:46:39.241Z,8.52
2019-03-26T23:49:06.642Z,8.52
2019-03-26T23:51:34.061Z,8.56
2019-03-26T23:54:01.455Z,8.57
2019-03-26T23:56:28.857Z,8.52
2019-03-26T23:58:56.465Z,8.56
